Time;durP1;ratioP1;P1;durP2;ratioP2;P2;SDS_P1;SDS_P2;PMS_P1;PMS_P2;Temp;Humidity;BMP_temperature;BMP_pressure;BME280_temperature;BME280_humidity;BME280_pressure;Samples;Min_cycle;Max_cycle;Signal;HPM_P1;HPM_P2
2023/03/24 00:00:47;;;;;;;0.40;0.40;;;;;;;;;;5013781;28;20455;-76
2023/03/24 00:03:16;;;;;;;0.60;0.43;;;;;;;;;;5013919;28;20432;-77
2023/03/24 00:05:43;;;;;;;0.45;0.40;;;;;;;;;;5028010;28;20470;-77
2023/03/24 00:08:11;;;;;;;1.33;0.50;;;;;;;;;;5033043;28;20509;-77
2023/03/24 00:10:39;;;;;;;0.40;0.40;;;;;;;;;;5032021;28;20463;-77
2023/03/24 00:13:06;;;;;;;0.50;0.50;;;;;;;;;;5033438;28;20426;-77
2023/03/24 00:15:36;;;;;;;0.30;0.30;;;;;;;;;;5032954;28;20450;-77
2023/03/24 00:18:03;;;;;;;0.50;0.50;;;;;;;;;;5032374;28;20488;-77
2023/03/24 00:20:33;;;;;;;0.30;0.30;;;;;;;;;;5032149;28;20833;-77
2023/03/24 00:23:01;;;;;;;0.40;0.40;;;;;;;;;;5033133;28;20437;-77
2023/03/24 00:25:32;;;;;;;1.20;0.30;;;;;;;;;;5032656;28;20434;-77
2023/03/24 00:28:06;;;;;;;0.40;0.40;;;;;;;;;;5032761;28;20430;-77
2023/03/24 00:30:34;;;;;;;0.52;0.52;;;;;;;;;;5032544;28;20595;-77
2023/03/24 00:33:01;;;;;;;0.47;0.47;;;;;;;;;;5033474;28;20431;-77
2023/03/24 00:35:29;;;;;;;0.40;0.40;;;;;;;;;;5031915;28;20454;-77
2023/03/24 00:37:57;;;;;;;0.30;0.30;;;;;;;;;;5033336;28;20853;-77
2023/03/24 00:40:24;;;;;;;1.00;0.40;;;;;;;;;;5032742;28;20957;-77
2023/03/24 00:42:51;;;;;;;3.10;0.70;;;;;;;;;;5032870;28;20441;-78
2023/03/24 00:45:21;;;;;;;0.75;0.75;;;;;;;;;;5032210;28;20925;-78
2023/03/24 00:47:52;;;;;;;1.45;0.45;;;;;;;;;;5032678;28;20902;-78
2023/03/24 00:50:25;;;;;;;0.45;0.45;;;;;;;;;;5032021;28;20457;-78
2023/03/24 00:52:53;;;;;;;0.80;0.60;;;;;;;;;;5033029;28;20434;-78
2023/03/24 00:55:22;;;;;;;0.73;0.73;;;;;;;;;;5032953;28;20441;-78
2023/03/24 00:57:53;;;;;;;0.35;0.35;;;;;;;;;;5031908;28;20514;-77
2023/03/24 01:00:22;;;;;;;0.68;0.68;;;;;;;;;;5032968;28;20467;-77
2023/03/24 01:02:54;;;;;;;0.38;0.38;;;;;;;;;;5031915;28;20802;-78
2023/03/24 01:05:29;;;;;;;0.60;0.60;;;;;;;;;;5031328;28;20910;-78
2023/03/24 01:07:57;;;;;;;0.52;0.52;;;;;;;;;;5033089;28;20430;-78
2023/03/24 01:10:29;;;;;;;0.47;0.47;;;;;;;;;;5032663;28;20430;-78
2023/03/24 01:12:57;;;;;;;2.30;1.05;;;;;;;;;;5031867;28;20435;-78
2023/03/24 01:15:26;;;;;;;1.27;0.90;;;;;;;;;;5032280;28;20441;-78
2023/03/24 01:18:08;;;;;;;0.65;0.65;;;;;;;;;;5031774;28;20837;-77
2023/03/24 01:20:35;;;;;;;0.70;0.70;;;;;;;;;;5032519;28;20431;-77
2023/03/24 01:23:08;;;;;;;0.65;0.65;;;;;;;;;;5031450;28;20431;-77
2023/03/24 01:25:38;;;;;;;1.00;0.90;;;;;;;;;;5016329;28;20440;-77
2023/03/24 01:28:05;;;;;;;0.60;0.60;;;;;;;;;;5026309;28;20437;-77
2023/03/24 01:30:33;;;;;;;1.17;0.47;;;;;;;;;;5033808;28;20442;-77
2023/03/24 01:33:00;;;;;;;0.43;0.43;;;;;;;;;;5036002;28;20533;-77
2023/03/24 01:35:30;;;;;;;1.00;0.40;;;;;;;;;;5036743;28;20458;-77
2023/03/24 01:37:58;;;;;;;1.00;0.70;;;;;;;;;;5031994;28;20434;-77
2023/03/24 01:40:27;;;;;;;1.08;0.40;;;;;;;;;;5030834;28;20910;-77
2023/03/24 01:42:55;;;;;;;0.63;0.63;;;;;;;;;;5031757;28;20530;-77
2023/03/24 01:45:40;;;;;;;0.85;0.80;;;;;;;;;;5031720;28;20453;-77
2023/03/24 01:48:11;;;;;;;0.98;0.98;;;;;;;;;;5032257;28;20439;-77
2023/03/24 01:50:39;;;;;;;0.60;0.60;;;;;;;;;;5031546;28;20466;-77
2023/03/24 01:53:07;;;;;;;0.43;0.43;;;;;;;;;;5031820;28;20546;-77
2023/03/24 01:55:34;;;;;;;0.60;0.45;;;;;;;;;;5030254;28;20439;-75
2023/03/24 01:58:02;;;;;;;0.60;0.60;;;;;;;;;;5031306;28;21031;-77
2023/03/24 02:00:30;;;;;;;0.40;0.40;;;;;;;;;;5031545;28;20732;-77
2023/03/24 02:02:58;;;;;;;1.50;0.73;;;;;;;;;;5031392;28;20549;-77
2023/03/24 02:05:29;;;;;;;2.65;0.95;;;;;;;;;;5031073;28;20445;-76
2023/03/24 02:08:15;;;;;;;0.57;0.57;;;;;;;;;;5030210;28;20684;-77
2023/03/24 02:10:42;;;;;;;0.40;0.40;;;;;;;;;;5031472;28;20514;-77
2023/03/24 02:13:13;;;;;;;0.70;0.68;;;;;;;;;;5014947;28;20955;-77
2023/03/24 02:16:11;;;;;;;0.55;0.55;;;;;;;;;;5010740;28;20911;-76
2023/03/24 02:19:11;;;;;;;0.73;0.73;;;;;;;;;;5009059;28;20472;-77
2023/03/24 02:21:57;;;;;;;0.55;0.55;;;;;;;;;;5008636;28;21136;-77
2023/03/24 02:24:59;;;;;;;0.60;0.50;;;;;;;;;;5007281;28;20515;-77
2023/03/24 02:27:50;;;;;;;0.43;0.43;;;;;;;;;;4969658;28;20974;-76
2023/03/24 02:30:34;;;;;;;0.60;0.60;;;;;;;;;;4963764;28;20431;-77
2023/03/24 02:33:07;;;;;;;0.98;0.93;;;;;;;;;;4969715;28;20440;-77
2023/03/24 02:35:41;;;;;;;0.45;0.45;;;;;;;;;;4971437;28;20981;-77
2023/03/24 02:38:12;;;;;;;0.50;0.50;;;;;;;;;;4970775;28;20522;-77
2023/03/24 02:40:39;;;;;;;0.60;0.60;;;;;;;;;;4970148;28;20556;-77
2023/03/24 02:43:13;;;;;;;0.97;0.97;;;;;;;;;;4969408;28;20618;-77
2023/03/24 02:45:49;;;;;;;2.80;0.82;;;;;;;;;;4967228;28;20443;-77
2023/03/24 02:48:36;;;;;;;0.85;0.85;;;;;;;;;;4969105;28;20831;-77
2023/03/24 02:51:11;;;;;;;1.13;1.02;;;;;;;;;;4968664;28;20978;-77
2023/03/24 02:53:38;;;;;;;0.67;0.67;;;;;;;;;;4969428;28;20440;-77
2023/03/24 02:56:11;;;;;;;0.63;0.63;;;;;;;;;;4969094;28;20518;-77
2023/03/24 02:58:45;;;;;;;0.70;0.70;;;;;;;;;;4969361;28;20574;-76
2023/03/24 03:01:14;;;;;;;0.53;0.53;;;;;;;;;;4998233;28;20947;-77
2023/03/24 03:03:44;;;;;;;0.73;0.70;;;;;;;;;;5030193;28;20431;-76
2023/03/24 03:06:18;;;;;;;1.27;1.03;;;;;;;;;;5028439;28;20435;-77
2023/03/24 03:08:46;;;;;;;0.57;0.57;;;;;;;;;;5030564;28;20427;-77
2023/03/24 03:11:15;;;;;;;0.73;0.73;;;;;;;;;;5029327;28;20521;-77
2023/03/24 03:13:49;;;;;;;1.30;1.15;;;;;;;;;;5030425;28;20834;-77
2023/03/24 03:16:27;;;;;;;0.77;0.77;;;;;;;;;;5029780;28;20431;-77
2023/03/24 03:19:00;;;;;;;0.75;0.73;;;;;;;;;;5021916;28;20537;-77
2023/03/24 03:21:29;;;;;;;1.05;0.85;;;;;;;;;;5030334;28;20629;-76
2023/03/24 03:24:01;;;;;;;0.65;0.65;;;;;;;;;;5029542;28;20427;-76
2023/03/24 03:26:31;;;;;;;0.80;0.80;;;;;;;;;;5032090;28;20441;-76
2023/03/24 03:29:03;;;;;;;2.80;0.80;;;;;;;;;;5034618;28;20430;-77
2023/03/24 03:31:33;;;;;;;0.90;0.82;;;;;;;;;;5033549;28;20430;-77
2023/03/24 03:34:16;;;;;;;0.70;0.70;;;;;;;;;;5014057;28;20519;-77
2023/03/24 03:37:09;;;;;;;1.00;0.70;;;;;;;;;;5014467;28;20435;-76
2023/03/24 03:39:41;;;;;;;0.85;0.85;;;;;;;;;;5030141;28;21161;-77
2023/03/24 03:42:11;;;;;;;1.00;0.73;;;;;;;;;;5031488;28;20432;-76
2023/03/24 03:44:40;;;;;;;0.90;0.50;;;;;;;;;;5031188;28;20431;-77
2023/03/24 03:47:08;;;;;;;0.70;0.70;;;;;;;;;;5031066;28;21110;-77
2023/03/24 03:49:35;;;;;;;0.80;0.80;;;;;;;;;;5047312;28;20456;-77
2023/03/24 03:52:02;;;;;;;0.50;0.50;;;;;;;;;;5051206;28;20476;-77
2023/03/24 03:54:31;;;;;;;0.45;0.45;;;;;;;;;;5024637;28;20459;-77
2023/03/24 03:56:59;;;;;;;1.20;0.85;;;;;;;;;;5011583;28;20429;-77
2023/03/24 03:59:40;;;;;;;0.52;0.52;;;;;;;;;;5004328;28;20437;-77
2023/03/24 04:02:12;;;;;;;0.80;0.80;;;;;;;;;;5011286;28;20524;-77
2023/03/24 04:04:58;;;;;;;0.77;0.77;;;;;;;;;;5011167;28;20440;-77
2023/03/24 04:07:44;;;;;;;0.60;0.60;;;;;;;;;;5027661;28;20786;-77
2023/03/24 04:10:14;;;;;;;1.20;0.75;;;;;;;;;;5030664;28;20433;-77
2023/03/24 04:12:45;;;;;;;1.50;0.90;;;;;;;;;;5030902;28;20433;-77
2023/03/24 04:15:14;;;;;;;0.95;0.88;;;;;;;;;;5028410;28;20522;-77
2023/03/24 04:17:41;;;;;;;0.95;0.57;;;;;;;;;;5033259;28;20437;-76
2023/03/24 04:20:13;;;;;;;1.05;1.05;;;;;;;;;;5033618;28;21162;-77
2023/03/24 04:23:01;;;;;;;0.87;0.70;;;;;;;;;;5033920;28;20457;-77
2023/03/24 04:25:57;;;;;;;2.90;1.00;;;;;;;;;;5032585;28;20437;-77
2023/03/24 04:28:36;;;;;;;0.60;0.60;;;;;;;;;;5033155;28;20434;-77
2023/03/24 04:31:06;;;;;;;0.73;0.70;;;;;;;;;;5039274;28;20431;-77
2023/03/24 04:34:02;;;;;;;0.73;0.73;;;;;;;;;;5044091;28;20438;-77
2023/03/24 04:36:41;;;;;;;1.02;1.00;;;;;;;;;;5042887;28;20450;-77
2023/03/24 04:39:13;;;;;;;0.82;0.82;;;;;;;;;;5043608;28;20427;-78
2023/03/24 04:41:42;;;;;;;0.50;0.50;;;;;;;;;;5042927;28;20439;-75
2023/03/24 04:44:09;;;;;;;0.75;0.75;;;;;;;;;;5043734;28;20477;-76
2023/03/24 04:46:38;;;;;;;1.10;1.00;;;;;;;;;;5044888;28;20502;-77
2023/03/24 04:49:05;;;;;;;0.70;0.70;;;;;;;;;;5034287;28;20438;-77
2023/03/24 04:51:32;;;;;;;1.05;0.60;;;;;;;;;;5033349;28;20431;-77
2023/03/24 04:53:59;;;;;;;1.10;1.00;;;;;;;;;;5033378;28;20932;-76
2023/03/24 04:56:41;;;;;;;0.97;0.97;;;;;;;;;;5031680;28;20433;-77
2023/03/24 04:59:08;;;;;;;1.70;0.75;;;;;;;;;;5033349;28;20575;-75
2023/03/24 05:01:36;;;;;;;0.88;0.88;;;;;;;;;;5033402;28;20426;-75
2023/03/24 05:04:04;;;;;;;0.80;0.80;;;;;;;;;;5032350;28;20423;-74
2023/03/24 05:06:32;;;;;;;0.60;0.60;;;;;;;;;;5031632;28;20431;-76
2023/03/24 05:08:59;;;;;;;1.10;1.00;;;;;;;;;;5029333;28;20469;-75
2023/03/24 05:11:29;;;;;;;0.95;0.75;;;;;;;;;;5032003;28;20434;-74
2023/03/24 05:13:59;;;;;;;1.40;0.63;;;;;;;;;;5011665;28;20923;-74
2023/03/24 05:16:26;;;;;;;0.57;0.57;;;;;;;;;;5011823;28;20436;-75
2023/03/24 05:18:53;;;;;;;0.80;0.80;;;;;;;;;;5011745;28;20467;-74
2023/03/24 05:21:20;;;;;;;1.40;0.60;;;;;;;;;;5011922;28;20447;-75
2023/03/24 05:23:48;;;;;;;0.60;0.60;;;;;;;;;;5013322;28;20498;-75
2023/03/24 05:26:15;;;;;;;0.60;0.60;;;;;;;;;;5031666;28;20435;-75
2023/03/24 05:28:42;;;;;;;0.60;0.60;;;;;;;;;;5031521;28;20435;-75
2023/03/24 05:31:11;;;;;;;0.55;0.55;;;;;;;;;;5031509;28;20430;-75
2023/03/24 05:33:39;;;;;;;0.47;0.47;;;;;;;;;;5031119;28;20430;-75
2023/03/24 05:36:06;;;;;;;0.40;0.40;;;;;;;;;;5031015;28;20971;-76
2023/03/24 05:38:33;;;;;;;0.57;0.57;;;;;;;;;;5030484;28;20514;-75
2023/03/24 05:41:01;;;;;;;0.43;0.43;;;;;;;;;;5030069;28;20936;-76
2023/03/24 05:43:30;;;;;;;0.40;0.40;;;;;;;;;;5030236;28;20435;-75
2023/03/24 05:45:59;;;;;;;0.35;0.35;;;;;;;;;;5027884;28;20526;-75
2023/03/24 05:48:29;;;;;;;0.50;0.50;;;;;;;;;;5030563;28;20518;-75
2023/03/24 05:50:56;;;;;;;0.20;0.20;;;;;;;;;;5029053;28;20493;-75
2023/03/24 05:53:23;;;;;;;0.30;0.30;;;;;;;;;;5030918;28;20435;-75
2023/03/24 05:55:52;;;;;;;0.30;0.30;;;;;;;;;;5027962;28;20430;-75
2023/03/24 05:58:23;;;;;;;0.43;0.43;;;;;;;;;;5023998;28;20779;-75
2023/03/24 06:00:50;;;;;;;0.47;0.47;;;;;;;;;;5029978;28;20438;-75
2023/03/24 06:03:17;;;;;;;0.20;0.20;;;;;;;;;;5030756;28;20438;-75
2023/03/24 06:05:46;;;;;;;0.20;0.20;;;;;;;;;;5030337;28;20488;-75
2023/03/24 06:08:17;;;;;;;0.30;0.30;;;;;;;;;;5030750;28;20838;-75
2023/03/24 06:10:44;;;;;;;0.30;0.30;;;;;;;;;;5030775;28;20431;-75
2023/03/24 06:13:11;;;;;;;0.30;0.30;;;;;;;;;;5029256;28;20434;-75
2023/03/24 06:15:41;;;;;;;0.50;0.50;;;;;;;;;;5030005;28;20427;-74
2023/03/24 06:18:09;;;;;;;0.30;0.22;;;;;;;;;;5031075;28;20431;-75
2023/03/24 06:20:36;;;;;;;0.55;0.40;;;;;;;;;;5030760;28;20430;-75
2023/03/24 06:23:03;;;;;;;0.30;0.30;;;;;;;;;;5030478;28;20431;-75
2023/03/24 06:25:32;;;;;;;0.50;0.50;;;;;;;;;;5027745;28;20437;-75
2023/03/24 06:28:04;;;;;;;0.45;0.45;;;;;;;;;;5030538;28;20465;-75
2023/03/24 06:30:35;;;;;;;0.70;0.70;;;;;;;;;;5028974;28;20427;-75
2023/03/24 06:33:03;;;;;;;0.57;0.35;;;;;;;;;;5029713;28;20449;-73
2023/03/24 06:35:35;;;;;;;0.50;0.50;;;;;;;;;;5029820;28;20515;-74
2023/03/24 06:38:06;;;;;;;2.05;0.45;;;;;;;;;;5029933;28;20925;-74
2023/03/24 06:40:36;;;;;;;0.60;0.60;;;;;;;;;;5027662;28;20469;-74
2023/03/24 06:43:05;;;;;;;0.32;0.32;;;;;;;;;;5029285;28;20527;-74
2023/03/24 06:45:33;;;;;;;0.50;0.50;;;;;;;;;;5028275;28;20431;-74
2023/03/24 06:48:00;;;;;;;0.43;0.43;;;;;;;;;;5030415;28;20430;-74
2023/03/24 06:50:33;;;;;;;0.47;0.47;;;;;;;;;;5030535;28;20459;-74
2023/03/24 06:56:26;;;;;;;0.52;0.52;;;;;;;;;;5030430;28;20398;-74
2023/03/24 06:58:55;;;;;;;0.47;0.47;;;;;;;;;;5029467;28;20414;-75
2023/03/24 07:01:23;;;;;;;0.50;0.50;;;;;;;;;;5028199;28;20488;-74
2023/03/24 07:03:50;;;;;;;0.40;0.40;;;;;;;;;;5029603;28;20542;-74
2023/03/24 07:06:18;;;;;;;0.63;0.63;;;;;;;;;;5027319;28;20437;-74
2023/03/24 07:08:48;;;;;;;0.80;0.80;;;;;;;;;;5029951;28;20437;-74
2023/03/24 07:11:17;;;;;;;0.20;0.20;;;;;;;;;;5029943;28;20902;-74
2023/03/24 07:13:47;;;;;;;0.45;0.45;;;;;;;;;;5029953;28;20508;-75
2023/03/24 07:16:17;;;;;;;0.30;0.30;;;;;;;;;;5028956;28;20454;-75
2023/03/24 07:18:44;;;;;;;0.50;0.45;;;;;;;;;;5030232;28;20430;-75
2023/03/24 07:21:11;;;;;;;0.60;0.60;;;;;;;;;;5029982;28;20430;-74
2023/03/24 07:23:38;;;;;;;0.38;0.38;;;;;;;;;;5030089;28;20437;-75
2023/03/24 07:26:06;;;;;;;0.38;0.38;;;;;;;;;;5028477;28;20521;-75
2023/03/24 07:28:33;;;;;;;0.50;0.50;;;;;;;;;;5010291;28;20941;-75
2023/03/24 07:31:09;;;;;;;0.30;0.30;;;;;;;;;;5010407;28;20487;-75
2023/03/24 07:33:37;;;;;;;0.50;0.50;;;;;;;;;;5025749;28;20437;-75
2023/03/24 07:36:06;;;;;;;0.30;0.30;;;;;;;;;;5028258;28;20423;-75
2023/03/24 07:38:34;;;;;;;0.30;0.30;;;;;;;;;;5029527;28;20834;-73
2023/03/24 07:41:01;;;;;;;0.40;0.40;;;;;;;;;;5028353;28;20430;-73
2023/03/24 07:43:28;;;;;;;0.20;0.20;;;;;;;;;;5029658;28;20514;-73
2023/03/24 07:45:55;;;;;;;0.38;0.38;;;;;;;;;;5029126;28;20509;-73
2023/03/24 07:48:22;;;;;;;0.50;0.50;;;;;;;;;;5026834;28;20435;-73
2023/03/24 07:50:53;;;;;;;1.00;0.90;;;;;;;;;;5029512;28;20427;-72
2023/03/24 07:53:22;;;;;;;0.40;0.40;;;;;;;;;;5029145;28;20434;-73
2023/03/24 07:56:02;;;;;;;0.60;0.60;;;;;;;;;;5027639;28;20431;-73
2023/03/24 07:58:29;;;;;;;0.30;0.30;;;;;;;;;;5029510;28;20522;-74
2023/03/24 08:01:02;;;;;;;0.65;0.65;;;;;;;;;;5029651;28;20485;-73
2023/03/24 08:03:30;;;;;;;0.52;0.52;;;;;;;;;;5024687;28;20430;-73
2023/03/24 08:06:01;;;;;;;0.30;0.30;;;;;;;;;;5029234;28;20430;-73
2023/03/24 08:08:30;;;;;;;0.37;0.37;;;;;;;;;;5029617;28;20451;-73
2023/03/24 08:11:05;;;;;;;3.67;1.00;;;;;;;;;;5027168;28;20431;-72
2023/03/24 08:13:32;;;;;;;0.60;0.60;;;;;;;;;;5031062;28;20430;-72
2023/03/24 08:16:03;;;;;;;0.20;0.20;;;;;;;;;;5032108;28;20431;-72
2023/03/24 08:18:33;;;;;;;0.40;0.40;;;;;;;;;;5031474;28;20458;-73
2023/03/24 08:21:03;;;;;;;0.45;0.30;;;;;;;;;;5031575;28;20434;-73
2023/03/24 08:23:32;;;;;;;0.40;0.40;;;;;;;;;;5032996;28;20553;-73
2023/03/24 08:26:02;;;;;;;0.40;0.40;;;;;;;;;;5027773;28;20485;-73
2023/03/24 08:28:32;;;;;;;0.60;0.60;;;;;;;;;;5032339;28;20511;-73
2023/03/24 08:31:00;;;;;;;0.70;0.70;;;;;;;;;;5031265;28;20514;-72
2023/03/24 08:33:27;;;;;;;0.60;0.60;;;;;;;;;;5032414;28;20427;-73
2023/03/24 08:35:57;;;;;;;0.32;0.32;;;;;;;;;;5029014;28;20461;-73
2023/03/24 08:38:29;;;;;;;0.47;0.47;;;;;;;;;;5032259;28;20434;-73
2023/03/24 08:40:58;;;;;;;0.40;0.40;;;;;;;;;;5032391;28;20430;-73
2023/03/24 08:43:25;;;;;;;0.30;0.30;;;;;;;;;;5032383;28;20430;-73
2023/03/24 08:45:52;;;;;;;0.60;0.60;;;;;;;;;;5031997;28;20434;-73
2023/03/24 08:48:20;;;;;;;0.43;0.43;;;;;;;;;;5032763;28;20439;-72
2023/03/24 08:50:47;;;;;;;0.40;0.40;;;;;;;;;;5032049;28;20519;-74
2023/03/24 08:53:15;;;;;;;0.40;0.40;;;;;;;;;;5030170;28;20427;-73
2023/03/24 08:55:43;;;;;;;0.45;0.45;;;;;;;;;;5031509;28;20454;-73
2023/03/24 08:58:31;;;;;;;0.40;0.40;;;;;;;;;;5030575;28;20437;-73
2023/03/24 09:01:01;;;;;;;0.28;0.28;;;;;;;;;;5012222;28;20440;-74
2023/03/24 09:03:30;;;;;;;0.50;0.47;;;;;;;;;;5012063;28;20429;-74
2023/03/24 09:06:00;;;;;;;0.63;0.50;;;;;;;;;;5012027;28;20951;-74
2023/03/24 09:08:27;;;;;;;0.30;0.30;;;;;;;;;;5018818;28;20931;-74
2023/03/24 09:10:54;;;;;;;0.60;0.60;;;;;;;;;;5012261;28;20458;-73
2023/03/24 09:13:21;;;;;;;0.40;0.40;;;;;;;;;;5018951;28;20439;-73
2023/03/24 09:15:50;;;;;;;1.30;0.28;;;;;;;;;;5031523;28;20455;-74
2023/03/24 09:18:21;;;;;;;0.20;0.20;;;;;;;;;;5031675;28;20927;-73
2023/03/24 09:20:49;;;;;;;0.13;0.13;;;;;;;;;;5031163;28;20434;-72
2023/03/24 09:23:17;;;;;;;0.20;0.20;;;;;;;;;;5031266;28;20431;-71
2023/03/24 09:25:45;;;;;;;0.33;0.33;;;;;;;;;;5028803;28;20476;-70
2023/03/24 09:28:13;;;;;;;0.40;0.40;;;;;;;;;;5029985;28;20435;-69
2023/03/24 09:30:41;;;;;;;0.40;0.40;;;;;;;;;;5030971;28;20474;-69
2023/03/24 09:33:08;;;;;;;0.40;0.40;;;;;;;;;;5031059;28;20435;-69
2023/03/24 09:35:35;;;;;;;0.23;0.23;;;;;;;;;;5031122;28;20488;-70
2023/03/24 09:38:05;;;;;;;0.15;0.15;;;;;;;;;;5029932;28;20435;-70
2023/03/24 09:40:35;;;;;;;0.10;0.10;;;;;;;;;;5029241;28;20513;-69
2023/03/24 09:43:05;;;;;;;0.50;0.10;;;;;;;;;;5031318;28;20434;-69
2023/03/24 09:45:34;;;;;;;0.30;0.20;;;;;;;;;;5030349;28;20493;-69
2023/03/24 09:48:15;;;;;;;1.70;0.30;;;;;;;;;;5030841;28;20431;-69
2023/03/24 09:50:42;;;;;;;0.08;0.08;;;;;;;;;;5031202;28;20801;-69
2023/03/24 09:53:20;;;;;;;0.30;0.30;;;;;;;;;;5030771;28;20493;-70
2023/03/24 09:55:48;;;;;;;0.20;0.20;;;;;;;;;;5028870;28;20509;-70
2023/03/24 09:58:16;;;;;;;0.20;0.20;;;;;;;;;;5029208;28;20450;-69
2023/03/24 10:00:44;;;;;;;0.50;0.30;;;;;;;;;;5030799;28;20430;-69
2023/03/24 10:03:21;;;;;;;0.00;0.00;;;;;;;;;;5030865;28;20466;-70
2023/03/24 10:05:55;;;;;;;0.22;0.13;;;;;;;;;;5028914;28;20434;-70
2023/03/24 10:08:28;;;;;;;0.10;0.10;;;;;;;;;;5030474;28;20513;-70
2023/03/24 10:11:08;;;;;;;0.30;0.20;;;;;;;;;;5030910;28;20448;-71
2023/03/24 10:13:43;;;;;;;0.60;0.60;;;;;;;;;;5028825;28;21004;-71
2023/03/24 10:16:30;;;;;;;0.00;0.00;;;;;;;;;;5011061;28;20784;-70
2023/03/24 10:18:57;;;;;;;0.08;0.08;;;;;;;;;;5010695;28;20499;-70
2023/03/24 10:21:31;;;;;;;0.10;0.10;;;;;;;;;;5029308;28;20802;-70
2023/03/24 10:24:08;;;;;;;0.00;0.00;;;;;;;;;;5028623;28;20430;-70
2023/03/24 10:26:58;;;;;;;0.10;0.10;;;;;;;;;;5010842;28;20467;-70
2023/03/24 10:29:33;;;;;;;0.00;0.00;;;;;;;;;;5020563;28;20477;-69
2023/03/24 10:32:08;;;;;;;1.50;0.10;;;;;;;;;;5030176;28;20431;-69
2023/03/24 10:34:37;;;;;;;0.00;0.00;;;;;;;;;;5029888;28;20434;-69
2023/03/24 10:37:04;;;;;;;0.10;0.10;;;;;;;;;;5030135;28;20890;-69
2023/03/24 10:39:31;;;;;;;0.22;0.22;;;;;;;;;;5027129;28;22271;-69
2023/03/24 10:42:24;;;;;;;0.30;0.30;;;12.70;99.90;;;;;;5010605;28;20439;-69
2023/03/24 10:44:51;;;;;;;0.55;0.35;;;;;;;;;;5009986;28;20436;-69
2023/03/24 10:47:26;;;;;;;0.70;0.20;;;;;;;;;;5024430;28;20486;-69
2023/03/24 10:49:53;;;;;;;0.25;0.25;;;;;;;;;;5029765;28;20435;-69
2023/03/24 10:52:23;;;;;;;0.20;0.20;;;;;;;;;;5029597;28;20435;-69
2023/03/24 10:54:58;;;;;;;0.30;0.30;;;;;;;;;;5027547;28;20435;-69
2023/03/24 10:57:26;;;;;;;0.20;0.20;;;;;;;;;;5027591;28;20431;-69
2023/03/24 10:59:58;;;;;;;0.20;0.20;;;;;;;;;;5027027;28;20430;-69
2023/03/24 11:02:31;;;;;;;0.20;0.20;;;;;;;;;;5028725;28;20521;-69
2023/03/24 11:05:17;;;;;;;4.38;0.50;;;;;;;;;;5028680;28;20457;-69
2023/03/24 11:07:46;;;;;;;0.30;0.30;;;;;;;;;;5029766;28;20435;-69
2023/03/24 11:10:17;;;;;;;0.13;0.13;;;;;;;;;;5028560;28;20434;-69
2023/03/24 11:12:57;;;;;;;0.20;0.20;;;;;;;;;;5029754;28;20430;-69
2023/03/24 11:15:29;;;;;;;0.38;0.38;;;;;;;;;;5028495;28;20430;-69
2023/03/24 11:18:00;;;;;;;0.20;0.20;;;;;;;;;;5028736;28;20921;-69
2023/03/24 11:20:32;;;;;;;0.25;0.25;;;;;;;;;;5029950;28;20461;-69
2023/03/24 11:22:59;;;;;;;0.22;0.22;;;;;;;;;;5029777;28;20810;-69
2023/03/24 11:25:28;;;;;;;0.30;0.30;;;;;;;;;;5029302;28;20449;-69
2023/03/24 11:27:59;;;;;;;0.10;0.10;;;;;;;;;;5029460;28;20501;-68
2023/03/24 11:30:30;;;;;;;0.20;0.20;;;;;;;;;;5029687;28;20435;-68
2023/03/24 11:32:57;;;;;;;0.20;0.20;;;;;;;;;;5028131;28;20438;-69
2023/03/24 11:35:25;;;;;;;0.20;0.20;;;;;;;;;;5028775;28;20427;-69
2023/03/24 11:38:18;;;;;;;0.10;0.10;;;;;;;;;;5028034;28;20438;-69
2023/03/24 11:40:52;;;;;;;0.10;0.10;;;;;;;;;;5029655;28;20508;-69
2023/03/24 11:43:23;;;;;;;0.20;0.20;;;;;;;;;;5028058;28;20461;-69
2023/03/24 11:46:15;;;;;;;0.30;0.30;;;;;;;;;;5028967;28;20457;-69
2023/03/24 11:48:57;;;;;;;1.40;0.40;;;;;;;;;;5030885;28;20430;-69
2023/03/24 11:51:32;;;;;;;0.28;0.28;;;;;;;;;;5032924;28;20857;-69
2023/03/24 11:54:04;;;;;;;0.10;0.10;;;;;;;;;;5030833;28;20469;-69
2023/03/24 11:56:51;;;;;;;0.27;0.27;;;;;;;;;;5032899;28;20435;-69
2023/03/24 11:59:32;;;;;;;1.00;0.90;;;;;;;;;;5031467;28;20789;-69
2023/03/24 12:02:05;;;;;;;0.40;0.30;;;;;;;;;;5012833;28;20436;-69
2023/03/24 12:04:39;;;;;;;0.20;0.20;;;;;;;;;;5012917;28;20447;-69
2023/03/24 12:07:28;;;;;;;0.28;0.28;;;;;;;;;;5025007;28;20517;-70
2023/03/24 12:09:58;;;;;;;0.20;0.20;;;;;;;;;;5033026;28;20431;-69
2023/03/24 12:12:31;;;;;;;0.60;0.60;;;;;;;;;;5032869;28;20433;-69
2023/03/24 12:14:59;;;;;;;1.70;0.20;;;;;;;;;;5032368;28;20525;-69
2023/03/24 12:17:33;;;;;;;0.80;0.60;;;;;;;;;;5032594;28;20477;-69
2023/03/24 12:20:07;;;;;;;0.17;0.17;;;;;;;;;;5030672;28;20524;-69
2023/03/24 12:22:43;;;;;;;1.10;0.50;;;;;;;;;;5032512;28;20445;-68
2023/03/24 12:25:10;;;;;;;0.85;0.30;;;;;;;;;;5032517;28;20513;-68
2023/03/24 12:27:47;;;;;;;0.40;0.40;;;;;;;;;;5031041;28;20433;-68
2023/03/24 12:30:14;;;;;;;0.15;0.15;;;;;;;;;;5032545;28;20529;-68
2023/03/24 12:32:47;;;;;;;0.20;0.20;;;;;;;;;;5032688;28;20426;-67
2023/03/24 12:35:29;;;;;;;0.20;0.20;;;;;;;;;;5030702;28;20424;-68
2023/03/24 12:38:05;;;;;;;0.60;0.60;;;;;;;;;;5031897;28;20438;-68
2023/03/24 12:40:50;;;;;;;0.75;0.75;;;;;;;;;;5029750;28;20898;-68
2023/03/24 12:43:35;;;;;;;1.20;0.40;;;;;;;;;;5031957;28;20430;-68
2023/03/24 12:46:29;;;;;;;1.20;0.40;;;;;;;;;;5031912;28;20427;-68
2023/03/24 12:49:18;;;;;;;0.90;0.40;;;;;;;;;;5029065;28;20493;-68
2023/03/24 12:51:52;;;;;;;0.70;0.20;;;;;;;;;;5028096;28;20486;-69
2023/03/24 12:54:24;;;;;;;0.20;0.20;;;;;;;;;;5027995;28;20787;-68
2023/03/24 12:56:54;;;;;;;0.50;0.50;;;;;;;;;;5028595;28;20419;-68
2023/03/24 12:59:40;;;;;;;0.38;0.38;;;;;;;;;;5024420;28;20437;-68
2023/03/24 13:02:26;;;;;;;0.20;0.20;;;;;;;;;;5009447;28;21051;-68
2023/03/24 13:04:55;;;;;;;1.60;0.30;;;;;;;;;;5008827;28;20463;-68
2023/03/24 13:07:27;;;;;;;1.00;0.38;;;;;;;;;;5020591;28;20477;-68
2023/03/24 13:09:58;;;;;;;1.80;0.50;;;;;;;;;;5028503;28;20521;-68
2023/03/24 13:12:32;;;;;;;1.40;0.25;;;;;;;;;;5029037;28;20418;-68
2023/03/24 13:15:02;;;;;;;0.32;0.32;;;;;;;;;;5028601;28;20516;-68
2023/03/24 13:17:35;;;;;;;5.00;0.30;;;;;;;;;;5028797;28;20937;-67
2023/03/24 13:20:08;;;;;;;0.10;0.10;;;;;;;;;;5010781;28;21002;-68
2023/03/24 13:22:38;;;;;;;0.28;0.20;;;;;;;;;;5028572;28;20488;-68
2023/03/24 13:25:12;;;;;;;0.20;0.20;;;;;;;;;;5025001;28;20436;-68
2023/03/24 13:27:40;;;;;;;0.22;0.22;;;;;;;;;;5024632;28;20434;-68
2023/03/24 13:30:14;;;;;;;0.40;0.25;;;;;;;;;;5031346;28;20435;-68
2023/03/24 13:33:00;;;;;;;0.20;0.20;;;;;;;;;;5028841;28;20434;-68
2023/03/24 13:35:27;;;;;;;0.77;0.28;;;;;;;;;;5030332;28;20485;-68
2023/03/24 13:38:16;;;;;;;0.20;0.20;;;;;;;;;;5031474;28;20510;-68
2023/03/24 13:40:45;;;;;;;0.30;0.30;;;;;;;;;;5029818;28;20842;-68
2023/03/24 13:43:20;;;;;;;0.40;0.40;;;;;;;;;;5031184;28;20439;-68
2023/03/24 13:45:55;;;;;;;0.80;0.30;;;;;;;;;;5028456;28;20434;-68
2023/03/24 13:48:41;;;;;;;0.20;0.20;;;;;;;;;;5030900;28;20809;-68
2023/03/24 13:51:26;;;;;;;0.25;0.25;;;;;;;;;;5031016;28;20449;-68
2023/03/24 13:53:54;;;;;;;0.20;0.20;;;;;;;;;;5030979;28;20437;-68
2023/03/24 13:56:26;;;;;;;0.70;0.38;;;;;;;;;;5028914;28;20489;-68
2023/03/24 13:58:59;;;;;;;0.30;0.30;;;;;;;;;;5028667;28;20441;-68
2023/03/24 14:01:42;;;;;;;1.42;0.22;;;;;;;;;;5030778;28;20434;-68
2023/03/24 14:04:19;;;;;;;0.30;0.30;;;;;;;;;;5030529;28;20463;-69
2023/03/24 14:06:47;;;;;;;0.20;0.20;;;;;;;;;;5030683;28;20474;-68
2023/03/24 14:09:20;;;;;;;0.10;0.10;;;;;;;;;;5030687;28;20920;-68
2023/03/24 14:12:07;;;;;;;1.50;0.20;;;;;;;;;;5028917;28;20423;-69
2023/03/24 14:14:39;;;;;;;0.40;0.30;;;;;;;;;;5030086;28;20435;-68
2023/03/24 14:17:15;;;;;;;0.30;0.30;;;;;;;;;;5028919;28;20466;-69
2023/03/24 14:19:43;;;;;;;0.70;0.28;;;;;;;;;;5029344;28;20439;-69
2023/03/24 14:22:16;;;;;;;1.27;0.32;;;;;;;;;;5029638;28;20841;-69
2023/03/24 14:24:44;;;;;;;0.20;0.20;;;;;;;;;;5027100;28;20433;-69
2023/03/24 14:27:23;;;;;;;0.20;0.20;;;;;;;;;;5030279;28;20909;-68
2023/03/24 14:29:51;;;;;;;0.20;0.20;;;;;;;;;;5026848;28;20439;-69
2023/03/24 14:32:21;;;;;;;0.40;0.40;;;;;;;;;;5030101;28;20430;-69
2023/03/24 14:34:52;;;;;;;0.28;0.28;;;;;;;;;;5029817;28;20423;-69
2023/03/24 14:37:20;;;;;;;0.60;0.30;;;;;;;;;;5028889;28;20427;-69
2023/03/24 14:39:48;;;;;;;0.20;0.20;;;12.20;99.90;;;;;;5030215;28;20518;-69
2023/03/24 14:42:47;;;;;;;0.50;0.20;;;24.10;99.90;;;;;;5030346;28;20438;-69
2023/03/24 14:45:35;;;;;;;0.20;0.20;;;24.00;99.90;;;;;;5027691;28;20438;-69
2023/03/24 14:48:06;;;;;;;0.83;0.43;;;21.90;99.90;;;;;;5030474;28;20457;-69
2023/03/24 14:50:35;;;;;;;0.20;0.20;;;20.60;99.90;;;;;;5028276;28;20430;-69
2023/03/24 14:53:03;;;;;;;1.30;0.30;;;19.90;99.90;;;;;;5030005;28;20427;-69
2023/03/24 14:55:30;;;;;;;0.30;0.30;;;19.80;99.90;;;;;;5028858;28;20431;-69
2023/03/24 14:58:02;;;;;;;0.17;0.17;;;20.50;99.90;;;;;;5029637;28;20758;-69
2023/03/24 15:00:43;;;;;;;0.40;0.40;;;;;;;;;;5024860;28;20442;-68
2023/03/24 15:03:37;;;;;;;0.60;0.30;;;;;;;;;;5029797;28;20427;-69
2023/03/24 15:06:10;;;;;;;0.10;0.10;;;;;;;;;;5027023;28;20779;-69
2023/03/24 15:08:37;;;;;;;0.20;0.20;;;20.10;99.90;;;;;;5029611;28;20442;-68
2023/03/24 15:11:09;;;;;;;0.40;0.20;;;19.20;99.90;;;;;;5029855;28;20433;-69